createdAt,value
2022-08-12T00:02:03.271Z,60.62
2022-08-12T00:05:27.765Z,60.74
2022-08-12T00:08:51.156Z,60.17
2022-08-12T00:12:14.880Z,60.14
2022-08-12T00:15:36.087Z,60.41
2022-08-12T00:18:57.689Z,60.26
2022-08-12T00:22:20.033Z,60.45
2022-08-12T00:26:01.348Z,60.56
2022-08-12T00:29:22.321Z,60.78
2022-08-12T00:32:54.749Z,60.65
2022-08-12T00:36:34.986Z,61.13
2022-08-12T00:39:58.674Z,60.83
2022-08-12T00:43:00.857Z,59.98
2022-08-12T00:46:21.534Z,59.95
2022-08-12T00:49:25.255Z,61.11
2022-08-12T00:52:27.518Z,60.49
2022-08-12T00:55:29.879Z,60.57
2022-08-12T00:58:34.817Z,60.60
2022-08-12T01:02:02.283Z,60.59
2022-08-12T01:05:25.048Z,60.83
2022-08-12T01:08:46.011Z,60.17
2022-08-12T01:11:50.063Z,60.07
2022-08-12T01:14:54.623Z,60.38
2022-08-12T01:17:56.948Z,60.03
2022-08-12T01:21:17.432Z,60.76
2022-08-12T01:24:49.292Z,61.09
2022-08-12T01:27:53.283Z,60.55
2022-08-12T01:30:57.528Z,60.72
2022-08-12T01:34:04.152Z,60.30
2022-08-12T01:37:09.170Z,60.18
2022-08-12T01:40:33.832Z,60.25
2022-08-12T01:43:34.846Z,60.62
2022-08-12T01:46:42.934Z,60.73
2022-08-12T01:50:09.140Z,61.07
2022-08-12T01:53:20.780Z,61.09
2022-08-12T01:56:25.991Z,61.07
2022-08-12T01:59:59.178Z,60.99
2022-08-12T02:04:07.286Z,60.88
2022-08-12T02:07:36.859Z,60.24
2022-08-12T02:11:04.018Z,60.37
2022-08-12T02:14:38.167Z,60.34
2022-08-12T02:18:12.800Z,60.71
2022-08-12T02:21:38.148Z,61.03
2022-08-12T02:24:44.458Z,60.97
2022-08-12T02:27:49.529Z,60.54
2022-08-12T02:30:51.505Z,60.36
2022-08-12T02:33:54.939Z,60.58
2022-08-12T02:37:02.610Z,60.54
2022-08-12T02:40:07.614Z,60.32
2022-08-12T02:43:51.491Z,61.06
2022-08-12T02:46:56.938Z,60.84
2022-08-12T02:50:02.326Z,60.85
2022-08-12T02:53:05.090Z,60.66
2022-08-12T02:56:07.819Z,61.08
2022-08-12T02:59:16.600Z,60.52
2022-08-12T03:02:24.697Z,60.58
2022-08-12T03:05:26.854Z,61.11
2022-08-12T03:08:39.864Z,60.38
2022-08-12T03:11:50.767Z,60.26
2022-08-12T03:14:55.634Z,60.73
2022-08-12T03:18:25.962Z,60.79
2022-08-12T03:21:55.398Z,61.22
2022-08-12T03:24:58.509Z,60.35
2022-08-12T03:28:00.645Z,60.41
2022-08-12T03:31:08.164Z,61.44
2022-08-12T03:34:14.449Z,60.98
2022-08-12T03:37:20.726Z,61.43
2022-08-12T03:40:46.483Z,61.11
2022-08-12T03:44:48.813Z,60.67
2022-08-12T03:48:39.369Z,61.32
2022-08-12T03:52:00.431Z,60.62
2022-08-12T03:55:22.339Z,60.28
2022-08-12T03:58:44.014Z,60.90
2022-08-12T04:01:52.592Z,60.94
2022-08-12T04:04:55.946Z,61.17
2022-08-12T04:08:00.178Z,60.49
2022-08-12T04:11:20.724Z,61.03
2022-08-12T04:14:22.818Z,61.58
2022-08-12T04:17:28.185Z,61.24
2022-08-12T04:20:30.660Z,60.58
2022-08-12T04:23:33.836Z,60.89
2022-08-12T04:26:36.541Z,61.01
2022-08-12T04:30:31.129Z,61.19
2022-08-12T04:33:02.270Z,61.61
2022-08-12T04:36:04.734Z,61.45
2022-08-12T04:39:09.041Z,61.29
2022-08-12T04:42:11.379Z,61.13
2022-08-12T04:45:13.496Z,61.64
2022-08-12T04:48:24.445Z,61.37
2022-08-12T04:51:27.181Z,60.83
2022-08-12T04:54:29.799Z,60.61
2022-08-12T04:57:31.893Z,60.32
2022-08-12T05:00:34.886Z,60.52
2022-08-12T05:03:46.547Z,60.99
2022-08-12T05:06:49.573Z,61.22
2022-08-12T05:10:00.337Z,60.87
2022-08-12T05:13:09.702Z,60.43
2022-08-12T05:16:11.776Z,61.25
2022-08-12T05:19:18.721Z,60.65
2022-08-12T05:22:26.353Z,61.00
2022-08-12T05:25:28.641Z,60.18
2022-08-12T05:28:30.858Z,61.01
2022-08-12T05:31:42.563Z,60.73
2022-08-12T05:34:50.414Z,60.65
2022-08-12T05:38:15.399Z,61.99
2022-08-12T05:41:20.768Z,61.24
2022-08-12T05:44:22.868Z,61.36
2022-08-12T05:47:24.886Z,61.01
2022-08-12T05:50:47.663Z,61.10
2022-08-12T05:53:49.977Z,60.89
2022-08-12T05:56:52.370Z,61.37
2022-08-12T05:59:55.247Z,61.13
2022-08-12T06:03:03.066Z,60.91
2022-08-12T06:06:07.209Z,61.68
2022-08-12T06:09:11.511Z,61.54
2022-08-12T06:12:18.137Z,61.82
2022-08-12T06:15:20.905Z,61.37
2022-08-12T06:18:27.742Z,61.29
2022-08-12T06:21:31.729Z,61.37
2022-08-12T06:24:33.727Z,61.35
2022-08-12T06:28:06.693Z,61.83
2022-08-12T06:31:26.816Z,62.25
2022-08-12T06:35:23.705Z,61.84
2022-08-12T06:37:57.756Z,61.76
2022-08-12T06:41:19.515Z,61.26
2022-08-12T06:44:22.400Z,61.16
2022-08-12T06:47:24.436Z,61.89
2022-08-12T06:50:27.647Z,61.25
2022-08-12T06:53:33.034Z,61.20
2022-08-12T06:57:02.288Z,61.23
2022-08-12T06:59:57.750Z,61.90
2022-08-12T07:03:16.311Z,61.34
2022-08-12T07:06:25.443Z,61.28
2022-08-12T07:10:03.905Z,61.69
2022-08-12T07:12:55.025Z,61.50
2022-08-12T07:15:58.831Z,61.30
2022-08-12T07:19:00.909Z,61.86
2022-08-12T07:22:06.579Z,61.67
2022-08-12T07:25:27.550Z,62.20
2022-08-12T07:28:33.862Z,62.02
2022-08-12T07:31:39.595Z,61.98
2022-08-12T07:34:42.696Z,61.58
2022-08-12T07:37:44.790Z,62.30
2022-08-12T07:40:46.967Z,62.36
2022-08-12T07:44:02.478Z,61.20
2022-08-12T07:47:08.663Z,61.51
2022-08-12T07:50:22.981Z,61.46
2022-08-12T07:53:25.769Z,62.47
2022-08-12T07:56:28.961Z,62.25
2022-08-12T07:59:34.089Z,61.58
2022-08-12T08:02:37.663Z,61.33
2022-08-12T08:05:49.719Z,62.03
2022-08-12T08:08:51.899Z,61.49
2022-08-12T08:12:19.101Z,62.20
2022-08-12T08:16:02.055Z,62.29
2022-08-12T08:18:59.542Z,65.43
2022-08-12T08:22:01.633Z,64.82
2022-08-12T08:25:03.723Z,64.22
2022-08-12T08:28:22.309Z,64.15
2022-08-12T08:31:24.447Z,64.13
2022-08-12T08:34:34.029Z,62.91
2022-08-12T08:37:49.271Z,63.60
2022-08-12T08:41:10.135Z,63.70
2022-08-12T08:44:12.341Z,63.18
2022-08-12T08:47:14.529Z,63.13
2022-08-12T08:50:16.586Z,63.76
2022-08-12T08:53:19.694Z,64.60
2022-08-12T08:56:22.683Z,64.66
2022-08-12T08:59:24.684Z,65.11
2022-08-12T09:02:26.784Z,64.32
2022-08-12T09:06:01.757Z,64.71
2022-08-12T09:08:53.932Z,64.44
2022-08-12T09:12:14.781Z,64.64
2022-08-12T09:18:53.338Z,64.49
2022-08-12T09:21:57.381Z,64.77
2022-08-12T09:25:06.176Z,63.13
2022-08-12T09:28:11.719Z,62.67
2022-08-12T09:32:02.778Z,63.54
2022-08-12T09:34:42.663Z,64.28
2022-08-12T09:37:55.213Z,63.57
2022-08-12T09:42:33.620Z,63.77
2022-08-12T09:44:42.648Z,63.83
2022-08-12T09:47:46.264Z,62.57
2022-08-12T09:51:01.705Z,63.14
2022-08-12T09:54:08.367Z,63.35
2022-08-12T09:58:45.013Z,63.14
2022-08-12T10:00:52.258Z,62.67
2022-08-12T10:04:03.907Z,62.43
2022-08-12T10:07:06.919Z,61.71
2022-08-12T10:10:25.063Z,62.34
2022-08-12T10:13:42.069Z,63.74
2022-08-12T10:16:44.622Z,62.41
2022-08-12T10:19:51.970Z,62.36
2022-08-12T10:23:01.893Z,62.35
2022-08-12T10:26:36.911Z,61.56
2022-08-12T10:30:40.710Z,61.42
2022-08-12T10:33:18.120Z,61.24
2022-08-12T10:36:20.908Z,60.71
2022-08-12T10:40:02.268Z,60.89
2022-08-12T10:43:20.610Z,60.48
2022-08-12T10:46:24.161Z,62.17
2022-08-12T10:50:02.280Z,60.73
2022-08-12T10:52:57.017Z,60.21
2022-08-12T10:55:59.716Z,60.34
2022-08-12T10:59:10.457Z,60.62
2022-08-12T11:04:24.119Z,62.08
2022-08-12T11:07:09.187Z,62.31
2022-08-12T11:09:01.652Z,59.84
2022-08-12T11:12:54.696Z,61.55
2022-08-12T11:16:18.844Z,61.33
2022-08-12T11:18:56.224Z,61.61
2022-08-12T11:22:01.114Z,60.70
2022-08-12T11:25:10.414Z,61.58
2022-08-12T11:28:14.348Z,60.54
2022-08-12T11:31:16.660Z,61.08
2022-08-12T11:34:53.264Z,60.48
2022-08-12T11:37:59.339Z,60.41
2022-08-12T11:41:05.171Z,60.45
2022-08-12T11:44:29.180Z,60.44
2022-08-12T11:47:30.252Z,60.44
2022-08-12T11:50:32.874Z,60.01
2022-08-12T11:53:58.129Z,60.88
2022-08-12T11:57:02.342Z,62.29
2022-08-12T12:03:43.982Z,62.08
2022-08-12T12:06:53.010Z,61.15
2022-08-12T12:09:55.717Z,62.05
2022-08-12T12:12:57.976Z,61.70
2022-08-12T12:16:00.164Z,61.20
2022-08-12T12:19:02.552Z,62.08
2022-08-12T12:22:04.712Z,62.72
2022-08-12T12:25:12.768Z,63.08
2022-08-12T12:28:36.638Z,62.20
2022-08-12T12:32:09.413Z,62.55
2022-08-12T12:36:05.591Z,61.98
2022-08-12T12:38:25.260Z,62.12
2022-08-12T12:42:42.141Z,62.21
2022-08-12T12:44:50.965Z,61.14
2022-08-12T12:47:59.788Z,62.41
2022-08-12T12:51:49.451Z,62.81
2022-08-12T12:54:52.975Z,61.41
2022-08-12T12:57:59.375Z,62.26
2022-08-12T13:01:04.648Z,63.18
2022-08-12T13:04:12.249Z,62.13
2022-08-12T13:07:16.427Z,61.89
2022-08-12T13:10:30.525Z,61.32
2022-08-12T13:14:09.786Z,59.72
2022-08-12T13:17:03.211Z,60.43
2022-08-12T13:20:06.423Z,61.77
2022-08-12T13:23:35.971Z,61.95
2022-08-12T13:26:43.882Z,62.02
2022-08-12T13:30:26.564Z,61.46
2022-08-12T13:34:32.052Z,62.22
2022-08-12T13:36:52.588Z,61.78
2022-08-12T13:39:54.979Z,62.09
2022-08-12T13:42:58.151Z,62.16
2022-08-12T13:46:01.462Z,62.12
2022-08-12T13:49:04.947Z,61.63
2022-08-12T13:52:07.010Z,62.91
2022-08-12T13:55:09.180Z,63.14
2022-08-12T13:58:21.067Z,63.11
2022-08-12T14:01:23.260Z,62.04
2022-08-12T14:04:25.365Z,63.45
2022-08-12T14:07:45.989Z,63.93
2022-08-12T14:11:16.807Z,63.75
2022-08-12T14:14:39.613Z,64.33
2022-08-12T14:18:27.108Z,63.50
2022-08-12T14:21:30.067Z,63.97
2022-08-12T14:24:52.527Z,64.60
2022-08-12T14:28:04.516Z,63.12
2022-08-12T14:35:09.925Z,64.10
2022-08-12T14:38:26.424Z,63.98
2022-08-12T14:41:37.034Z,65.55
2022-08-12T14:44:59.690Z,63.56
2022-08-12T14:48:06.933Z,64.12
2022-08-12T14:52:43.339Z,64.72
2022-08-12T14:58:02.972Z,64.32
2022-08-12T15:01:24.022Z,65.29
2022-08-12T15:07:53.429Z,65.47
2022-08-12T15:11:04.815Z,65.00
2022-08-12T15:14:11.950Z,64.88
2022-08-12T15:17:37.225Z,64.89
2022-08-12T15:20:54.543Z,66.22
2022-08-12T15:24:00.505Z,65.04
2022-08-12T15:27:03.774Z,65.80
2022-08-12T15:30:11.524Z,65.85
2022-08-12T15:33:18.943Z,65.29
2022-08-12T15:36:54.694Z,66.29
2022-08-12T15:40:00.738Z,66.05
2022-08-12T15:43:51.808Z,66.07
2022-08-12T15:46:55.043Z,66.69
2022-08-12T15:50:00.897Z,66.72
2022-08-12T15:53:17.135Z,66.50
2022-08-12T15:56:30.015Z,66.60
2022-08-12T15:59:51.159Z,66.26
2022-08-12T16:02:58.759Z,67.20
2022-08-12T16:06:19.086Z,66.05
2022-08-12T16:09:56.239Z,65.45
2022-08-12T16:12:57.544Z,65.42
2022-08-12T16:16:03.831Z,64.78
2022-08-12T16:19:09.575Z,65.80
2022-08-12T16:22:26.603Z,65.28
2022-08-12T16:26:00.147Z,65.67
2022-08-12T16:28:56.190Z,64.85
2022-08-12T16:31:59.742Z,65.60
2022-08-12T16:35:08.243Z,66.41
2022-08-12T16:38:28.277Z,65.79
2022-08-12T16:41:38.173Z,65.39
2022-08-12T16:44:46.086Z,66.00
2022-08-12T16:47:58.127Z,65.44
2022-08-12T16:51:12.633Z,67.13
2022-08-12T16:54:17.251Z,65.26
2022-08-12T16:57:20.127Z,65.83
2022-08-12T17:00:41.044Z,65.62
2022-08-12T17:04:09.144Z,66.21
2022-08-12T17:07:19.676Z,66.67
2022-08-12T17:10:36.637Z,66.76
2022-08-12T17:13:52.961Z,65.64
2022-08-12T17:16:56.947Z,66.55
2022-08-12T17:20:35.488Z,67.95
2022-08-12T17:23:47.961Z,66.35
2022-08-12T17:26:53.987Z,66.37
2022-08-12T17:30:00.598Z,65.23
2022-08-12T17:33:07.658Z,64.77
2022-08-12T17:36:10.736Z,65.27
2022-08-12T17:39:13.050Z,65.70
2022-08-12T17:42:34.684Z,65.67
2022-08-12T17:45:42.375Z,68.17
2022-08-12T17:48:54.832Z,66.00
2022-08-12T17:52:02.740Z,66.40
2022-08-12T17:55:39.972Z,66.81
2022-08-12T17:58:38.043Z,66.51
2022-08-12T18:01:46.333Z,67.03
2022-08-12T18:05:05.001Z,67.08
2022-08-12T18:08:12.864Z,67.32
2022-08-12T18:12:06.541Z,67.01
2022-08-12T18:15:09.159Z,66.86
2022-08-12T18:18:17.126Z,66.02
2022-08-12T18:21:21.490Z,66.39
2022-08-12T18:24:29.474Z,66.11
2022-08-12T18:27:44.033Z,65.93
2022-08-12T18:30:52.860Z,65.81
2022-08-12T18:34:01.534Z,65.62
2022-08-12T18:37:26.761Z,65.75
2022-08-12T18:40:48.521Z,65.93
2022-08-12T18:44:07.756Z,66.93
2022-08-12T18:47:14.620Z,66.95
2022-08-12T18:50:17.894Z,67.34
2022-08-12T18:54:07.374Z,67.01
2022-08-12T18:56:43.226Z,67.86
2022-08-12T19:00:01.054Z,67.05
2022-08-12T19:03:23.588Z,67.73
2022-08-12T19:06:36.065Z,66.74
2022-08-12T19:09:58.361Z,65.34
2022-08-12T19:13:23.682Z,65.55
2022-08-12T19:16:27.188Z,65.34
2022-08-12T19:19:37.439Z,65.26
2022-08-12T19:22:59.706Z,65.80
2022-08-12T19:26:10.838Z,66.41
2022-08-12T19:29:18.397Z,66.18
2022-08-12T19:32:23.680Z,66.27
2022-08-12T19:36:06.586Z,66.92
2022-08-12T19:38:56.716Z,66.92
2022-08-12T19:42:01.270Z,66.93
2022-08-12T19:45:05.953Z,67.55
2022-08-12T19:48:18.001Z,67.30
2022-08-12T19:51:38.458Z,67.52
2022-08-12T19:54:43.931Z,66.89
2022-08-12T19:58:01.324Z,67.50
2022-08-12T20:01:11.007Z,66.70
2022-08-12T20:04:14.187Z,65.72
2022-08-12T20:07:23.877Z,66.45
2022-08-12T20:10:35.590Z,66.44
2022-08-12T20:13:39.111Z,66.44
2022-08-12T20:16:52.338Z,65.84
2022-08-12T20:20:17.049Z,65.91
2022-08-12T20:23:23.867Z,66.73
2022-08-12T20:26:43.419Z,67.29
2022-08-12T20:29:46.387Z,67.29
2022-08-12T20:32:56.120Z,67.19
2022-08-12T20:36:06.642Z,67.62
2022-08-12T20:39:52.371Z,67.39
2022-08-12T20:42:45.895Z,68.03
2022-08-12T20:45:57.398Z,67.66
2022-08-12T20:49:14.287Z,67.50
2022-08-12T20:52:19.928Z,66.89
2022-08-12T20:55:22.437Z,67.21
2022-08-12T20:58:44.567Z,66.99
2022-08-12T21:01:49.156Z,66.16
2022-08-12T21:05:19.599Z,66.41
2022-08-12T21:08:26.739Z,66.82
2022-08-12T21:11:28.866Z,66.63
2022-08-12T21:14:39.708Z,66.24
2022-08-12T21:18:11.069Z,66.35
2022-08-12T21:21:46.909Z,67.00
2022-08-12T21:24:50.546Z,66.96
2022-08-12T21:27:59.553Z,67.56
2022-08-12T21:32:35.440Z,67.86
2022-08-12T21:34:29.108Z,67.23
2022-08-12T21:37:37.523Z,67.37
2022-08-12T21:40:52.124Z,67.23
2022-08-12T21:44:00.876Z,67.22
2022-08-12T21:47:21.699Z,67.23
2022-08-12T21:50:25.994Z,66.99
2022-08-12T21:54:07.646Z,66.13
2022-08-12T21:56:53.970Z,67.13
2022-08-12T21:59:56.287Z,66.76
2022-08-12T22:03:17.502Z,66.10
2022-08-12T22:06:43.181Z,66.15
2022-08-12T22:09:46.713Z,66.95
2022-08-12T22:13:01.083Z,66.98
2022-08-12T22:16:03.989Z,66.89
2022-08-12T22:19:06.813Z,67.34
2022-08-12T22:22:08.967Z,67.13
2022-08-12T22:25:16.863Z,67.78
2022-08-12T22:28:40.776Z,67.72
2022-08-12T22:31:43.024Z,67.18
2022-08-12T22:34:46.294Z,67.84
2022-08-12T22:37:48.798Z,67.84
2022-08-12T22:41:00.985Z,67.36
2022-08-12T22:44:22.855Z,66.93
2022-08-12T22:47:53.391Z,67.50
2022-08-12T22:50:59.363Z,67.29
2022-08-12T22:54:01.576Z,67.35
2022-08-12T22:57:05.059Z,66.79
2022-08-12T23:00:24.336Z,67.44
2022-08-12T23:03:48.859Z,66.52
2022-08-12T23:06:55.525Z,67.44
2022-08-12T23:09:57.748Z,67.50
2022-08-12T23:13:18.777Z,67.46
2022-08-12T23:16:29.213Z,67.06
2022-08-12T23:19:38.203Z,67.83
2022-08-12T23:22:40.727Z,67.73
2022-08-12T23:25:55.325Z,67.55
2022-08-12T23:29:29.713Z,67.83
2022-08-12T23:32:38.470Z,67.13
2022-08-12T23:35:45.588Z,67.90
2022-08-12T23:39:01.637Z,68.33
2022-08-12T23:42:17.536Z,67.45
2022-08-12T23:45:32.009Z,66.80
2022-08-12T23:48:37.911Z,67.27
2022-08-12T23:51:40.440Z,67.07
2022-08-12T23:54:58.220Z,66.73
2022-08-12T23:58:20.849Z,67.04
